createdAt,value
2022-08-07T00:01:43.651Z,101010.25
2022-08-07T00:04:09.547Z,100995.31
2022-08-07T00:06:45.640Z,100988.16
2022-08-07T00:09:21.345Z,100985.72
2022-08-07T00:11:55.303Z,100989.06
2022-08-07T00:14:30.223Z,101000.56
2022-08-07T00:17:00.310Z,101005.69
2022-08-07T00:20:00.259Z,101003.22
2022-08-07T00:22:24.952Z,101020.94
2022-08-07T00:25:04.505Z,101020.47
2022-08-07T00:27:51.651Z,101026.56
2022-08-07T00:30:26.800Z,101030.16
2022-08-07T00:32:56.332Z,101025.94
2022-08-07T00:35:23.168Z,101032.44
2022-08-07T00:37:49.865Z,101037.72
2022-08-07T00:40:36.574Z,101043.59
2022-08-07T00:43:04.347Z,101063.53
2022-08-07T00:45:36.780Z,101080.19
2022-08-07T00:48:09.411Z,101088.63
2022-08-07T00:50:46.161Z,101086.03
2022-08-07T00:53:21.587Z,101084.94
2022-08-07T00:56:03.003Z,101087.81
2022-08-07T00:58:31.519Z,101088.59
2022-08-07T01:00:58.837Z,101087.81
2022-08-07T01:03:56.694Z,101076.31
2022-08-07T01:06:12.971Z,101069.66
2022-08-07T01:08:43.149Z,101073.16
2022-08-07T01:12:04.901Z,101067.50
2022-08-07T01:14:05.109Z,101056.63
2022-08-07T01:16:32.062Z,101047.50
2022-08-07T01:18:58.935Z,101037.41
2022-08-07T01:21:27.544Z,101034.09
2022-08-07T01:23:57.286Z,101036.44
2022-08-07T01:26:26.114Z,101042.09
2022-08-07T01:28:53.936Z,101046.50
2022-08-07T01:31:21.906Z,101041.19
2022-08-07T01:33:55.835Z,101035.50
2022-08-07T01:36:33.460Z,101027.19
2022-08-07T01:39:01.086Z,101018.28
2022-08-07T01:41:28.030Z,101008.19
2022-08-07T01:43:54.942Z,101004.72
2022-08-07T01:46:21.619Z,101000.53
2022-08-07T01:48:48.836Z,101014.47
2022-08-07T01:52:04.241Z,101002.41
2022-08-07T01:54:33.128Z,100997.38
2022-08-07T01:57:27.565Z,100989.31
2022-08-07T02:00:00.028Z,101000.41
2022-08-07T02:03:11.947Z,100996.59
2022-08-07T02:05:59.322Z,101000.78
2022-08-07T02:08:29.825Z,101002.91
2022-08-07T02:11:00.506Z,100997.41
2022-08-07T02:13:58.011Z,100992.13
2022-08-07T02:16:28.579Z,100995.63
2022-08-07T02:20:05.552Z,100982.13
2022-08-07T02:21:55.891Z,100977.63
2022-08-07T02:24:25.024Z,100980.75
2022-08-07T02:26:52.962Z,100981.38
2022-08-07T02:29:21.892Z,100981.22
2022-08-07T02:31:50.022Z,100972.03
2022-08-07T02:34:18.907Z,100971.56
2022-08-07T02:36:46.071Z,100967.03
2022-08-07T02:39:17.194Z,100966.63
2022-08-07T02:42:01.971Z,100955.00
2022-08-07T02:44:34.371Z,100946.25
2022-08-07T02:47:03.502Z,100954.22
2022-08-07T02:49:57.628Z,100939.88
2022-08-07T02:52:31.990Z,100935.63
2022-08-07T02:55:03.701Z,100932.28
2022-08-07T02:57:34.936Z,100936.47
2022-08-07T03:00:05.082Z,100931.50
2022-08-07T03:02:54.111Z,100936.25
2022-08-07T03:05:23.136Z,100933.44
2022-08-07T03:08:07.683Z,100941.63
2022-08-07T03:10:46.155Z,100934.06
2022-08-07T03:13:19.781Z,100935.28
2022-08-07T03:15:56.413Z,100929.72
2022-08-07T03:18:34.844Z,100936.38
2022-08-07T03:21:04.984Z,100941.16
2022-08-07T03:24:19.560Z,100946.03
2022-08-07T03:26:30.014Z,100953.03
2022-08-07T03:28:58.546Z,100950.47
2022-08-07T03:31:42.271Z,100955.69
2022-08-07T03:34:18.499Z,100966.81
2022-08-07T03:36:53.003Z,100967.28
2022-08-07T03:39:46.394Z,100955.84
2022-08-07T03:42:08.488Z,100939.47
2022-08-07T03:44:37.647Z,100936.72
2022-08-07T03:47:13.967Z,100938.75
2022-08-07T03:49:48.022Z,100937.09
2022-08-07T03:52:26.631Z,100943.34
2022-08-07T03:55:06.095Z,100940.78
2022-08-07T03:58:34.612Z,100934.66
2022-08-07T04:00:30.568Z,100955.91
2022-08-07T04:03:03.940Z,100953.81
2022-08-07T04:05:39.742Z,100948.47
2022-08-07T04:08:16.331Z,100959.44
2022-08-07T04:10:53.912Z,100948.56
2022-08-07T04:14:09.545Z,100959.56
2022-08-07T04:16:31.597Z,100942.81
2022-08-07T04:19:01.779Z,100941.34
2022-08-07T04:21:31.959Z,100941.75
2022-08-07T04:24:05.793Z,100948.44
2022-08-07T04:26:34.741Z,100947.63
2022-08-07T04:29:03.048Z,100969.22
2022-08-07T04:31:39.145Z,100971.69
2022-08-07T04:34:24.193Z,100978.06
2022-08-07T04:37:00.829Z,100977.47
2022-08-07T04:39:29.312Z,100991.59
2022-08-07T04:42:04.105Z,101010.72
2022-08-07T04:44:30.963Z,101011.16
2022-08-07T04:47:23.607Z,101014.03
2022-08-07T04:50:10.989Z,101012.16
2022-08-07T04:52:53.625Z,101022.28
2022-08-07T04:58:13.160Z,101026.94
2022-08-07T04:59:17.769Z,101031.13
2022-08-07T05:01:45.211Z,101036.56
2022-08-07T05:04:18.613Z,101045.97
2022-08-07T05:06:56.526Z,101056.25
2022-08-07T05:09:45.335Z,101068.56
2022-08-07T05:12:27.268Z,101078.03
2022-08-07T05:15:21.696Z,101078.13
2022-08-07T05:17:58.441Z,101089.59
2022-08-07T05:20:35.077Z,101092.75
2022-08-07T05:23:15.862Z,101107.84
2022-08-07T05:26:10.688Z,101123.13
2022-08-07T05:28:33.389Z,101135.91
2022-08-07T05:31:01.528Z,101134.34
2022-08-07T05:33:31.874Z,101136.78
2022-08-07T05:36:04.555Z,101129.78
2022-08-07T05:38:59.411Z,101137.91
2022-08-07T05:41:21.896Z,101143.84
2022-08-07T05:44:09.004Z,101136.94
2022-08-07T05:46:40.249Z,101135.91
2022-08-07T05:49:12.377Z,101139.34
2022-08-07T05:51:41.291Z,101134.91
2022-08-07T05:54:29.792Z,101139.13
2022-08-07T05:56:57.227Z,101145.66
2022-08-07T05:59:27.474Z,101143.97
2022-08-07T06:01:57.417Z,101143.13
2022-08-07T06:04:30.028Z,101139.31
2022-08-07T06:07:03.735Z,101133.00
2022-08-07T06:10:04.369Z,101140.78
2022-08-07T06:12:17.738Z,101149.25
2022-08-07T06:14:50.121Z,101153.88
2022-08-07T06:17:19.313Z,101161.22
2022-08-07T06:20:03.281Z,101165.22
2022-08-07T06:22:38.724Z,101169.66
2022-08-07T06:25:10.008Z,101173.69
2022-08-07T06:28:00.582Z,101175.97
2022-08-07T06:30:35.431Z,101163.97
2022-08-07T06:33:03.840Z,101172.16
2022-08-07T06:35:45.893Z,101175.97
2022-08-07T06:38:20.525Z,101167.75
2022-08-07T06:40:50.189Z,101167.53
2022-08-07T06:43:21.419Z,101169.25
2022-08-07T06:45:49.192Z,101177.28
2022-08-07T06:48:16.204Z,101162.47
2022-08-07T06:50:52.800Z,101158.06
2022-08-07T06:55:27.092Z,101165.03
2022-08-07T06:56:15.499Z,101165.44
2022-08-07T07:00:13.502Z,101165.44
2022-08-07T07:01:42.054Z,101160.81
2022-08-07T07:04:28.488Z,101171.94
2022-08-07T07:07:00.972Z,101170.28
2022-08-07T07:09:31.222Z,101168.41
2022-08-07T07:12:19.596Z,101168.41
2022-08-07T07:15:00.376Z,101167.56
2022-08-07T07:17:50.500Z,101164.16
2022-08-07T07:20:28.367Z,101155.31
2022-08-07T07:24:10.106Z,101152.38
2022-08-07T07:29:40.185Z,101133.41
2022-08-07T07:31:51.489Z,101126.47
2022-08-07T07:34:22.378Z,101134.25
2022-08-07T07:37:14.489Z,101126.69
2022-08-07T07:39:54.477Z,101122.88
2022-08-07T07:42:32.617Z,101125.81
2022-08-07T07:45:02.053Z,101126.47
2022-08-07T07:47:29.671Z,101116.56
2022-08-07T07:50:35.275Z,101127.13
2022-08-07T07:52:46.915Z,101132.16
2022-08-07T07:55:15.580Z,101135.13
2022-08-07T07:57:52.104Z,101121.38
2022-08-07T08:00:31.254Z,101121.84
2022-08-07T08:04:06.343Z,101119.31
2022-08-07T08:06:13.210Z,101119.31
2022-08-07T08:08:42.120Z,101121.19
2022-08-07T08:11:16.073Z,101113.38
2022-08-07T08:13:53.208Z,101110.84
2022-08-07T08:16:26.251Z,101120.50
2022-08-07T08:18:58.269Z,101125.97
2022-08-07T08:21:58.599Z,101123.22
2022-08-07T08:25:04.433Z,101127.63
2022-08-07T08:27:44.025Z,101124.63
2022-08-07T08:30:25.565Z,101116.81
2022-08-07T08:33:01.656Z,101122.94
2022-08-07T08:35:39.341Z,101110.28
2022-08-07T08:38:16.355Z,101125.44
2022-08-07T08:40:49.608Z,101117.00
2022-08-07T08:43:42.943Z,101118.25
2022-08-07T08:46:41.191Z,101123.06
2022-08-07T08:49:32.910Z,101119.63
2022-08-07T08:52:40.643Z,101127.38
2022-08-07T08:55:58.351Z,101141.50
2022-08-07T08:58:35.783Z,101150.34
2022-08-07T09:01:18.316Z,101147.97
2022-08-07T09:03:55.898Z,101136.34
2022-08-07T09:06:38.204Z,101134.63
2022-08-07T09:09:23.703Z,101141.69
2022-08-07T09:12:32.264Z,101144.06
2022-08-07T09:16:21.523Z,101145.31
2022-08-07T09:18:47.286Z,101141.72
2022-08-07T09:22:10.110Z,101132.63
2022-08-07T09:24:58.844Z,101137.00
2022-08-07T09:27:59.590Z,101144.59
2022-08-07T09:30:37.293Z,101136.28
2022-08-07T09:33:16.868Z,101143.31
2022-08-07T09:36:09.651Z,101132.78
2022-08-07T09:39:27.350Z,101139.59
2022-08-07T09:42:17.020Z,101134.31
2022-08-07T09:47:23.554Z,101136.38
2022-08-07T09:48:15.124Z,101131.53
2022-08-07T09:52:15.459Z,101135.47
2022-08-07T09:54:40.240Z,101141.13
2022-08-07T09:57:21.809Z,101130.84
2022-08-07T10:00:14.432Z,101123.97
2022-08-07T10:02:55.719Z,101122.59
2022-08-07T10:06:12.059Z,101119.66
2022-08-07T10:09:23.833Z,101125.09
2022-08-07T10:12:21.702Z,101122.22
2022-08-07T10:15:05.349Z,101118.78
2022-08-07T10:18:01.103Z,101109.88
2022-08-07T10:20:39.080Z,101102.19
2022-08-07T10:23:16.984Z,101100.88
2022-08-07T10:26:24.717Z,101088.50
2022-08-07T10:28:59.114Z,101091.16
2022-08-07T10:31:42.186Z,101077.56
2022-08-07T10:34:32.319Z,101072.00
2022-08-07T10:37:14.668Z,101069.13
2022-08-07T10:40:09.381Z,101066.25
2022-08-07T10:43:00.481Z,101072.78
2022-08-07T10:45:45.084Z,101074.22
2022-08-07T10:48:51.190Z,101073.13
2022-08-07T10:51:39.034Z,101072.66
2022-08-07T10:54:40.959Z,101060.28
2022-08-07T10:57:34.537Z,101072.25
2022-08-07T11:00:09.674Z,101067.63
2022-08-07T11:03:12.737Z,101065.75
2022-08-07T11:05:58.546Z,101070.53
2022-08-07T11:08:43.422Z,101067.69
2022-08-07T11:11:30.930Z,101057.19
2022-08-07T11:14:46.244Z,101068.03
2022-08-07T11:17:13.520Z,101061.34
2022-08-07T11:19:55.853Z,101056.41
2022-08-07T11:22:32.487Z,101052.13
2022-08-07T11:25:18.504Z,101055.09
2022-08-07T11:28:03.208Z,101058.22
2022-08-07T11:31:08.895Z,101049.03
2022-08-07T11:34:10.953Z,101046.06
2022-08-07T11:36:56.287Z,101044.34
2022-08-07T11:39:59.894Z,101041.00
2022-08-07T11:42:49.060Z,101045.16
2022-08-07T11:45:36.091Z,101040.03
2022-08-07T11:48:30.032Z,101046.72
2022-08-07T11:51:02.843Z,101041.25
2022-08-07T11:53:43.228Z,101044.03
2022-08-07T11:56:38.106Z,101040.09
2022-08-07T12:00:11.796Z,101025.53
2022-08-07T12:02:32.096Z,101035.44
2022-08-07T12:05:15.358Z,101034.09
2022-08-07T12:08:25.815Z,101027.66
2022-08-07T12:11:20.850Z,101028.88
2022-08-07T12:14:04.216Z,101023.47
2022-08-07T12:16:55.969Z,101014.03
2022-08-07T12:20:03.321Z,101000.59
2022-08-07T12:23:10.132Z,101000.84
2022-08-07T12:26:21.708Z,101003.59
2022-08-07T12:28:56.710Z,100997.34
2022-08-07T12:32:02.503Z,100985.25
2022-08-07T12:34:30.335Z,100978.97
2022-08-07T12:36:58.805Z,100982.53
2022-08-07T12:39:44.192Z,100982.84
2022-08-07T12:42:27.160Z,100969.25
2022-08-07T12:44:58.622Z,100978.41
2022-08-07T12:47:44.005Z,100972.31
2022-08-07T12:50:39.126Z,100964.19
2022-08-07T12:54:02.895Z,100960.94
2022-08-07T12:56:39.514Z,100962.06
2022-08-07T12:59:08.315Z,100960.91
2022-08-07T13:02:02.874Z,100951.31
2022-08-07T13:05:01.498Z,100947.81
2022-08-07T13:08:14.442Z,100938.50
2022-08-07T13:10:52.658Z,100936.78
2022-08-07T13:13:46.809Z,100937.94
2022-08-07T13:16:25.095Z,100933.34
2022-08-07T13:19:21.910Z,100928.91
2022-08-07T13:22:20.044Z,100914.84
2022-08-07T13:25:00.501Z,100914.63
2022-08-07T13:27:33.373Z,100910.16
2022-08-07T13:30:19.654Z,100909.16
2022-08-07T13:34:14.495Z,100905.78
2022-08-07T13:36:25.893Z,100890.44
2022-08-07T13:40:33.117Z,100891.84
2022-08-07T13:42:21.720Z,100882.19
2022-08-07T13:45:11.448Z,100877.13
2022-08-07T13:48:06.171Z,100878.63
2022-08-07T13:50:44.040Z,100873.94
2022-08-07T13:53:21.919Z,100882.50
2022-08-07T13:55:54.605Z,100874.16
2022-08-07T13:58:56.073Z,100876.94
2022-08-07T14:01:26.334Z,100870.34
2022-08-07T14:04:06.790Z,100871.72
2022-08-07T14:06:41.822Z,100881.44
2022-08-07T14:09:17.238Z,100872.56
2022-08-07T14:12:07.331Z,100862.56
2022-08-07T14:14:51.391Z,100876.38
2022-08-07T14:18:12.980Z,100863.56
2022-08-07T14:20:42.383Z,100850.91
2022-08-07T14:23:58.975Z,100855.34
2022-08-07T14:26:28.106Z,100851.47
2022-08-07T14:29:06.028Z,100849.78
2022-08-07T14:31:42.927Z,100853.06
2022-08-07T14:34:29.259Z,100835.31
2022-08-07T14:36:57.832Z,100842.00
2022-08-07T14:40:15.466Z,100844.19
2022-08-07T14:42:18.862Z,100836.94
2022-08-07T14:44:52.653Z,100834.16
2022-08-07T14:47:21.042Z,100825.28
2022-08-07T14:49:58.396Z,100828.91
2022-08-07T14:52:38.528Z,100820.84
2022-08-07T14:55:06.834Z,100835.28
2022-08-07T14:57:58.084Z,100827.50
2022-08-07T15:00:29.806Z,100833.63
2022-08-07T15:02:59.952Z,100838.69
2022-08-07T15:05:30.330Z,100834.78
2022-08-07T15:08:00.120Z,100837.56
2022-08-07T15:10:29.850Z,100837.56
2022-08-07T15:13:00.884Z,100833.69
2022-08-07T15:15:52.397Z,100828.97
2022-08-07T15:25:16.169Z,100839.25
2022-08-07T15:27:23.693Z,100841.19
2022-08-07T15:32:51.081Z,100845.34
2022-08-07T15:36:01.970Z,100841.47
2022-08-07T15:38:30.754Z,100837.28
2022-08-07T15:41:24.214Z,100839.53
2022-08-07T15:44:21.282Z,100847.03
2022-08-07T15:47:08.948Z,100839.50
2022-08-07T15:52:35.473Z,100834.75
2022-08-07T15:55:08.875Z,100839.47
2022-08-07T15:57:48.367Z,100841.66
2022-08-07T16:00:32.004Z,100847.31
2022-08-07T16:03:21.835Z,100842.03
2022-08-07T16:05:58.943Z,100842.22
2022-08-07T16:08:33.399Z,100851.38
2022-08-07T16:11:26.781Z,100847.75
2022-08-07T16:14:26.723Z,100841.03
2022-08-07T16:18:02.215Z,100829.09
2022-08-07T16:20:33.406Z,100828.59
2022-08-07T16:23:53.005Z,100836.09
2022-08-07T16:27:00.664Z,100830.50
2022-08-07T16:30:11.880Z,100823.25
2022-08-07T16:32:54.131Z,100824.59
2022-08-07T16:35:52.069Z,100824.53
2022-08-07T16:39:01.167Z,100810.53
2022-08-07T16:41:54.417Z,100815.78
2022-08-07T16:45:13.996Z,100814.38
2022-08-07T16:47:58.682Z,100814.59
2022-08-07T16:51:20.589Z,100816.56
2022-08-07T16:54:06.140Z,100818.22
2022-08-07T16:56:53.619Z,100807.47
2022-08-07T16:59:46.377Z,100808.03
2022-08-07T17:02:53.025Z,100813.31
2022-08-07T17:06:19.247Z,100813.06
2022-08-07T17:08:09.038Z,100801.97
2022-08-07T17:10:54.637Z,100807.22
2022-08-07T17:13:41.408Z,100808.03
2022-08-07T17:16:29.292Z,100817.75
2022-08-07T17:20:00.371Z,100825.28
2022-08-07T17:22:19.266Z,100815.25
2022-08-07T17:25:52.325Z,100804.97
2022-08-07T17:28:31.459Z,100811.38
2022-08-07T17:31:20.946Z,100816.56
2022-08-07T17:34:15.601Z,100806.31
2022-08-07T17:37:08.958Z,100807.94
2022-08-07T17:40:05.565Z,100812.03
2022-08-07T17:42:59.214Z,100813.09
2022-08-07T17:45:37.529Z,100813.03
2022-08-07T17:48:15.696Z,100806.91
2022-08-07T17:51:16.286Z,100814.56
2022-08-07T17:54:11.535Z,100811.75
2022-08-07T17:56:49.759Z,100811.63
2022-08-07T17:59:39.019Z,100812.69
2022-08-07T18:02:15.438Z,100815.94
2022-08-07T18:04:53.482Z,100803.16
2022-08-07T18:07:35.479Z,100808.13
2022-08-07T18:10:28.627Z,100811.38
2022-08-07T18:13:23.093Z,100816.50
2022-08-07T18:16:04.654Z,100815.84
2022-08-07T18:21:04.248Z,100805.25
2022-08-07T18:21:55.130Z,100806.53
2022-08-07T18:24:34.457Z,100816.97
2022-08-07T18:27:17.395Z,100814.66
2022-08-07T18:30:07.864Z,100811.28
2022-08-07T18:32:47.436Z,100821.16
2022-08-07T18:35:51.789Z,100826.03
2022-08-07T18:38:57.383Z,100834.78
2022-08-07T18:41:54.220Z,100840.72
2022-08-07T18:45:44.168Z,100846.78
2022-08-07T18:47:50.609Z,100844.47
2022-08-07T18:50:47.026Z,100853.19
2022-08-07T18:53:16.617Z,100860.53
2022-08-07T18:56:01.872Z,100868.41
2022-08-07T18:58:43.181Z,100881.63
2022-08-07T19:02:19.350Z,100881.03
2022-08-07T19:05:09.649Z,100893.09
2022-08-07T19:08:31.947Z,100896.88
2022-08-07T19:11:35.687Z,100901.28
2022-08-07T19:14:11.630Z,100904.00
2022-08-07T19:17:06.869Z,100910.53
2022-08-07T19:19:55.680Z,100910.09
2022-08-07T19:22:30.588Z,100906.53
2022-08-07T19:24:58.474Z,100909.97
2022-08-07T19:28:57.314Z,100912.63
2022-08-07T19:31:03.258Z,100924.94
2022-08-07T19:33:13.266Z,100921.84
2022-08-07T19:35:46.768Z,100913.00
2022-08-07T19:38:17.679Z,100914.84
2022-08-07T19:40:49.337Z,100921.78
2022-08-07T19:43:50.097Z,100924.34
2022-08-07T19:46:29.828Z,100928.09
2022-08-07T19:49:11.898Z,100929.38
2022-08-07T19:51:51.809Z,100933.94
2022-08-07T19:54:32.313Z,100943.41
2022-08-07T19:58:04.472Z,100938.38
2022-08-07T20:00:10.235Z,100942.69
2022-08-07T20:02:52.206Z,100925.56
2022-08-07T20:05:28.108Z,100931.06
2022-08-07T20:08:01.988Z,100936.31
2022-08-07T20:10:38.116Z,100931.47
2022-08-07T20:13:26.910Z,100926.91
2022-08-07T20:16:00.550Z,100926.78
2022-08-07T20:18:32.607Z,100923.91
2022-08-07T20:21:02.248Z,100912.16
2022-08-07T20:23:43.165Z,100903.75
2022-08-07T20:26:15.341Z,100901.91
2022-08-07T20:28:59.206Z,100891.88
2022-08-07T20:31:28.819Z,100908.78
2022-08-07T20:33:58.315Z,100898.50
2022-08-07T20:36:28.353Z,100896.19
2022-08-07T20:39:00.902Z,100892.84
2022-08-07T20:41:50.807Z,100886.13
2022-08-07T20:44:20.454Z,100888.03
2022-08-07T20:47:05.786Z,100889.72
2022-08-07T20:50:00.721Z,100896.63
2022-08-07T20:52:51.266Z,100890.78
2022-08-07T20:55:24.902Z,100880.09
2022-08-07T20:58:03.315Z,100888.94
2022-08-07T21:00:42.586Z,100886.81
2022-08-07T21:03:15.584Z,100884.22
2022-08-07T21:05:54.796Z,100882.22
2022-08-07T21:08:37.559Z,100885.38
2022-08-07T21:11:10.686Z,100882.97
2022-08-07T21:13:43.899Z,100889.69
2022-08-07T21:16:33.344Z,100886.69
2022-08-07T21:19:01.161Z,100882.97
2022-08-07T21:21:33.288Z,100895.03
2022-08-07T21:24:28.647Z,100901.63
2022-08-07T21:27:39.803Z,100909.25
2022-08-07T21:30:16.960Z,100919.63
2022-08-07T21:33:02.164Z,100923.44
2022-08-07T21:36:03.843Z,100927.25
2022-08-07T21:38:49.803Z,100931.31
2022-08-07T21:41:37.951Z,100938.25
2022-08-07T21:44:28.343Z,100949.56
2022-08-07T21:47:07.493Z,100952.00
2022-08-07T21:50:01.913Z,100950.28
2022-08-07T21:52:38.572Z,100949.44
2022-08-07T21:55:42.685Z,100957.63
2022-08-07T21:58:32.151Z,100957.19
2022-08-07T22:01:16.491Z,100952.06
2022-08-07T22:03:49.288Z,100958.59
2022-08-07T22:06:30.457Z,100970.91
2022-08-07T22:09:07.996Z,100959.81
2022-08-07T22:11:53.317Z,100974.19
2022-08-07T22:14:37.517Z,100970.63
2022-08-07T22:17:16.261Z,100973.09
2022-08-07T22:20:07.448Z,100986.53
2022-08-07T22:22:44.939Z,100988.41
2022-08-07T22:25:36.316Z,100994.09
2022-08-07T22:28:31.279Z,100990.50
2022-08-07T22:31:06.883Z,100979.53
2022-08-07T22:33:56.608Z,100988.97
2022-08-07T22:36:48.653Z,100985.94
2022-08-07T22:39:35.327Z,100991.38
2022-08-07T22:42:33.769Z,100986.47
2022-08-07T22:45:04.083Z,100986.69
2022-08-07T22:48:31.659Z,100985.56
2022-08-07T22:51:12.440Z,100989.69
2022-08-07T22:54:15.038Z,100984.97
2022-08-07T22:57:17.097Z,100974.41
2022-08-07T22:59:56.666Z,100975.63
2022-08-07T23:02:41.905Z,100967.47
2022-08-07T23:06:09.991Z,100975.03
2022-08-07T23:08:54.574Z,100965.47
2022-08-07T23:11:25.339Z,100975.25
2022-08-07T23:14:20.725Z,100967.31
2022-08-07T23:17:26.431Z,100967.69
2022-08-07T23:20:52.392Z,100968.66
2022-08-07T23:24:04.237Z,100977.09
2022-08-07T23:26:50.046Z,100968.53
2022-08-07T23:29:43.745Z,100962.81
2022-08-07T23:34:19.954Z,100973.38
2022-08-07T23:35:23.522Z,100965.78
2022-08-07T23:38:36.948Z,100979.28
2022-08-07T23:41:33.639Z,100970.69
2022-08-07T23:44:03.414Z,100979.75
2022-08-07T23:46:56.448Z,100979.75
2022-08-07T23:49:57.100Z,100974.88
2022-08-07T23:53:05.924Z,100977.16
2022-08-07T23:55:57.711Z,100974.59
2022-08-07T23:58:46.374Z,100979.59
